sensor_id;sensor_type;location;lat;lon;timestamp;P1;durP1;ratioP1;P2;durP2;ratioP2
51525;SDS011;37611;51.794;21.590;2023-08-24T00:03:47;12.70;;;6.80;;
51525;SDS011;37611;51.794;21.590;2023-08-24T00:07:49;8.10;;;6.90;;
51525;SDS011;37611;51.794;21.590;2023-08-24T00:11:53;7.50;;;5.80;;
51525;SDS011;37611;51.794;21.590;2023-08-24T00:15:54;8.10;;;6.70;;
51525;SDS011;37611;51.794;21.590;2023-08-24T00:19:56;9.00;;;5.90;;
51525;SDS011;37611;51.794;21.590;2023-08-24T00:23:58;9.40;;;6.10;;
51525;SDS011;37611;51.794;21.590;2023-08-24T00:28:01;8.80;;;5.90;;
51525;SDS011;37611;51.794;21.590;2023-08-24T00:32:03;9.30;;;5.80;;
51525;SDS011;37611;51.794;21.590;2023-08-24T00:36:05;8.90;;;5.70;;
51525;SDS011;37611;51.794;21.590;2023-08-24T00:40:07;13.10;;;5.20;;
51525;SDS011;37611;51.794;21.590;2023-08-24T00:44:11;10.90;;;6.20;;
51525;SDS011;37611;51.794;21.590;2023-08-24T00:48:13;9.90;;;6.00;;
51525;SDS011;37611;51.794;21.590;2023-08-24T00:52:15;11.60;;;6.70;;
51525;SDS011;37611;51.794;21.590;2023-08-24T00:56:18;16.00;;;7.70;;
51525;SDS011;37611;51.794;21.590;2023-08-24T01:00:25;14.10;;;6.40;;
51525;SDS011;37611;51.794;21.590;2023-08-24T01:04:27;9.70;;;6.50;;
51525;SDS011;37611;51.794;21.590;2023-08-24T01:08:29;12.10;;;6.60;;
51525;SDS011;37611;51.794;21.590;2023-08-24T01:17:24;12.90;;;6.60;;
51525;SDS011;37611;51.794;21.590;2023-08-24T01:21:31;10.30;;;7.40;;
51525;SDS011;37611;51.794;21.590;2023-08-24T01:25:46;13.70;;;6.60;;
51525;SDS011;37611;51.794;21.590;2023-08-24T01:29:54;9.50;;;5.70;;
51525;SDS011;37611;51.794;21.590;2023-08-24T01:33:58;11.10;;;5.80;;
51525;SDS011;37611;51.794;21.590;2023-08-24T01:38:01;10.00;;;6.00;;
51525;SDS011;37611;51.794;21.590;2023-08-24T01:42:04;12.40;;;6.40;;
51525;SDS011;37611;51.794;21.590;2023-08-24T01:46:11;10.10;;;6.10;;
51525;SDS011;37611;51.794;21.590;2023-08-24T01:50:16;7.10;;;5.50;;
51525;SDS011;37611;51.794;21.590;2023-08-24T01:54:18;10.80;;;6.10;;
51525;SDS011;37611;51.794;21.590;2023-08-24T01:58:20;8.60;;;5.40;;
51525;SDS011;37611;51.794;21.590;2023-08-24T02:02:21;7.80;;;5.00;;
51525;SDS011;37611;51.794;21.590;2023-08-24T02:06:23;9.30;;;5.30;;
51525;SDS011;37611;51.794;21.590;2023-08-24T02:10:25;11.50;;;5.70;;
51525;SDS011;37611;51.794;21.590;2023-08-24T02:14:27;8.00;;;4.90;;
51525;SDS011;37611;51.794;21.590;2023-08-24T02:18:29;7.80;;;5.30;;
51525;SDS011;37611;51.794;21.590;2023-08-24T02:22:31;8.10;;;5.20;;
51525;SDS011;37611;51.794;21.590;2023-08-24T02:26:32;10.50;;;5.00;;
51525;SDS011;37611;51.794;21.590;2023-08-24T02:30:36;14.20;;;6.00;;
51525;SDS011;37611;51.794;21.590;2023-08-24T02:34:39;8.60;;;4.80;;
51525;SDS011;37611;51.794;21.590;2023-08-24T02:38:41;8.20;;;5.20;;
51525;SDS011;37611;51.794;21.590;2023-08-24T02:42:43;7.00;;;5.40;;
51525;SDS011;37611;51.794;21.590;2023-08-24T02:46:44;6.00;;;4.70;;
51525;SDS011;37611;51.794;21.590;2023-08-24T02:50:47;9.00;;;5.10;;
51525;SDS011;37611;51.794;21.590;2023-08-24T02:54:49;8.00;;;5.20;;
51525;SDS011;37611;51.794;21.590;2023-08-24T02:58:50;11.80;;;5.90;;
51525;SDS011;37611;51.794;21.590;2023-08-24T03:02:52;7.90;;;5.30;;
51525;SDS011;37611;51.794;21.590;2023-08-24T03:06:54;8.10;;;4.80;;
51525;SDS011;37611;51.794;21.590;2023-08-24T03:10:56;8.80;;;5.50;;
51525;SDS011;37611;51.794;21.590;2023-08-24T03:14:59;9.80;;;5.90;;
51525;SDS011;37611;51.794;21.590;2023-08-24T03:19:01;8.50;;;4.90;;
51525;SDS011;37611;51.794;21.590;2023-08-24T03:23:03;8.10;;;5.60;;
51525;SDS011;37611;51.794;21.590;2023-08-24T03:27:04;9.00;;;5.10;;
51525;SDS011;37611;51.794;21.590;2023-08-24T03:31:06;7.20;;;5.50;;
51525;SDS011;37611;51.794;21.590;2023-08-24T03:35:08;5.50;;;4.90;;
51525;SDS011;37611;51.794;21.590;2023-08-24T03:39:10;8.20;;;5.20;;
51525;SDS011;37611;51.794;21.590;2023-08-24T03:43:12;10.00;;;5.70;;
51525;SDS011;37611;51.794;21.590;2023-08-24T03:47:14;11.30;;;5.80;;
51525;SDS011;37611;51.794;21.590;2023-08-24T03:51:16;8.20;;;5.80;;
51525;SDS011;37611;51.794;21.590;2023-08-24T03:55:18;9.00;;;6.00;;
51525;SDS011;37611;51.794;21.590;2023-08-24T03:59:20;31.10;;;19.50;;
51525;SDS011;37611;51.794;21.590;2023-08-24T04:03:22;23.20;;;13.40;;
51525;SDS011;37611;51.794;21.590;2023-08-24T04:07:23;21.90;;;15.90;;
51525;SDS011;37611;51.794;21.590;2023-08-24T04:11:25;20.90;;;15.70;;
51525;SDS011;37611;51.794;21.590;2023-08-24T04:15:27;19.20;;;14.80;;
51525;SDS011;37611;51.794;21.590;2023-08-24T04:19:29;19.10;;;13.60;;
51525;SDS011;37611;51.794;21.590;2023-08-24T04:23:31;19.30;;;14.20;;
51525;SDS011;37611;51.794;21.590;2023-08-24T04:27:32;16.90;;;13.20;;
51525;SDS011;37611;51.794;21.590;2023-08-24T04:31:34;18.80;;;13.70;;
51525;SDS011;37611;51.794;21.590;2023-08-24T04:35:36;16.90;;;11.80;;
51525;SDS011;37611;51.794;21.590;2023-08-24T04:39:38;14.10;;;9.30;;
51525;SDS011;37611;51.794;21.590;2023-08-24T04:43:40;12.10;;;8.50;;
51525;SDS011;37611;51.794;21.590;2023-08-24T04:47:42;13.40;;;10.90;;
51525;SDS011;37611;51.794;21.590;2023-08-24T04:51:43;9.20;;;6.80;;
51525;SDS011;37611;51.794;21.590;2023-08-24T04:55:45;9.00;;;7.60;;
51525;SDS011;37611;51.794;21.590;2023-08-24T04:59:48;9.90;;;7.50;;
51525;SDS011;37611;51.794;21.590;2023-08-24T05:03:49;8.20;;;7.00;;
51525;SDS011;37611;51.794;21.590;2023-08-24T05:07:51;17.70;;;15.50;;
51525;SDS011;37611;51.794;21.590;2023-08-24T05:11:56;11.50;;;10.40;;
51525;SDS011;37611;51.794;21.590;2023-08-24T05:15:57;8.80;;;7.80;;
51525;SDS011;37611;51.794;21.590;2023-08-24T05:19:59;15.20;;;10.40;;
51525;SDS011;37611;51.794;21.590;2023-08-24T05:24:01;13.00;;;8.30;;
51525;SDS011;37611;51.794;21.590;2023-08-24T05:28:03;7.70;;;6.90;;
51525;SDS011;37611;51.794;21.590;2023-08-24T05:32:05;7.90;;;6.80;;
51525;SDS011;37611;51.794;21.590;2023-08-24T05:36:07;8.30;;;6.10;;
51525;SDS011;37611;51.794;21.590;2023-08-24T05:40:09;7.50;;;5.50;;
51525;SDS011;37611;51.794;21.590;2023-08-24T05:44:11;8.90;;;6.20;;
51525;SDS011;37611;51.794;21.590;2023-08-24T05:48:13;6.60;;;4.70;;
51525;SDS011;37611;51.794;21.590;2023-08-24T05:52:14;6.00;;;4.50;;
51525;SDS011;37611;51.794;21.590;2023-08-24T05:56:16;6.40;;;4.70;;
51525;SDS011;37611;51.794;21.590;2023-08-24T06:00:18;8.10;;;4.90;;
51525;SDS011;37611;51.794;21.590;2023-08-24T06:04:21;6.50;;;5.00;;
51525;SDS011;37611;51.794;21.590;2023-08-24T06:08:23;5.50;;;4.40;;
51525;SDS011;37611;51.794;21.590;2023-08-24T06:12:25;7.00;;;4.60;;
51525;SDS011;37611;51.794;21.590;2023-08-24T06:16:27;7.10;;;4.60;;
51525;SDS011;37611;51.794;21.590;2023-08-24T06:20:30;7.90;;;3.90;;
51525;SDS011;37611;51.794;21.590;2023-08-24T06:24:32;5.70;;;4.00;;
51525;SDS011;37611;51.794;21.590;2023-08-24T06:28:33;5.60;;;3.80;;
51525;SDS011;37611;51.794;21.590;2023-08-24T06:32:35;6.80;;;3.60;;
51525;SDS011;37611;51.794;21.590;2023-08-24T06:36:38;6.60;;;3.90;;
51525;SDS011;37611;51.794;21.590;2023-08-24T06:40:40;3.70;;;3.40;;
51525;SDS011;37611;51.794;21.590;2023-08-24T06:44:41;4.80;;;3.30;;
51525;SDS011;37611;51.794;21.590;2023-08-24T06:48:43;5.70;;;3.30;;
51525;SDS011;37611;51.794;21.590;2023-08-24T06:52:45;4.60;;;2.70;;
51525;SDS011;37611;51.794;21.590;2023-08-24T06:56:47;4.20;;;3.00;;
51525;SDS011;37611;51.794;21.590;2023-08-24T07:00:49;6.80;;;3.20;;
51525;SDS011;37611;51.794;21.590;2023-08-24T07:04:54;4.30;;;3.20;;
51525;SDS011;37611;51.794;21.590;2023-08-24T07:08:58;4.40;;;3.00;;
51525;SDS011;37611;51.794;21.590;2023-08-24T07:13:00;8.10;;;3.20;;
51525;SDS011;37611;51.794;21.590;2023-08-24T07:17:02;4.20;;;2.50;;
51525;SDS011;37611;51.794;21.590;2023-08-24T07:21:04;5.70;;;3.10;;
51525;SDS011;37611;51.794;21.590;2023-08-24T07:25:06;5.60;;;2.70;;
51525;SDS011;37611;51.794;21.590;2023-08-24T07:29:08;4.10;;;2.50;;
51525;SDS011;37611;51.794;21.590;2023-08-24T07:33:11;3.30;;;2.40;;
51525;SDS011;37611;51.794;21.590;2023-08-24T07:37:12;3.50;;;2.40;;
51525;SDS011;37611;51.794;21.590;2023-08-24T07:41:14;3.10;;;2.10;;
51525;SDS011;37611;51.794;21.590;2023-08-24T07:45:18;5.60;;;3.30;;
51525;SDS011;37611;51.794;21.590;2023-08-24T07:49:21;4.30;;;2.60;;
51525;SDS011;37611;51.794;21.590;2023-08-24T07:53:22;3.80;;;2.30;;
51525;SDS011;37611;51.794;21.590;2023-08-24T07:57:24;4.10;;;2.50;;
51525;SDS011;37611;51.794;21.590;2023-08-24T08:01:27;3.50;;;2.10;;
51525;SDS011;37611;51.794;21.590;2023-08-24T08:05:29;5.00;;;2.30;;
51525;SDS011;37611;51.794;21.590;2023-08-24T08:09:32;3.30;;;2.10;;
51525;SDS011;37611;51.794;21.590;2023-08-24T08:13:33;4.40;;;2.30;;
51525;SDS011;37611;51.794;21.590;2023-08-24T08:17:35;3.20;;;2.20;;
51525;SDS011;37611;51.794;21.590;2023-08-24T08:21:37;4.30;;;1.90;;
51525;SDS011;37611;51.794;21.590;2023-08-24T08:25:38;5.50;;;2.10;;
51525;SDS011;37611;51.794;21.590;2023-08-24T08:29:43;3.30;;;2.10;;
51525;SDS011;37611;51.794;21.590;2023-08-24T08:33:45;3.00;;;1.90;;
51525;SDS011;37611;51.794;21.590;2023-08-24T08:37:47;3.50;;;2.00;;
51525;SDS011;37611;51.794;21.590;2023-08-24T08:41:51;4.30;;;1.90;;
51525;SDS011;37611;51.794;21.590;2023-08-24T08:45:52;3.90;;;2.20;;
51525;SDS011;37611;51.794;21.590;2023-08-24T08:49:56;3.90;;;1.90;;
51525;SDS011;37611;51.794;21.590;2023-08-24T08:53:59;3.10;;;1.90;;
51525;SDS011;37611;51.794;21.590;2023-08-24T08:58:01;5.00;;;1.70;;
51525;SDS011;37611;51.794;21.590;2023-08-24T09:02:05;5.10;;;2.10;;
51525;SDS011;37611;51.794;21.590;2023-08-24T09:06:09;2.50;;;1.90;;
51525;SDS011;37611;51.794;21.590;2023-08-24T09:10:11;3.90;;;2.10;;
51525;SDS011;37611;51.794;21.590;2023-08-24T09:14:13;5.70;;;2.10;;
51525;SDS011;37611;51.794;21.590;2023-08-24T09:18:15;4.70;;;2.10;;
51525;SDS011;37611;51.794;21.590;2023-08-24T09:22:17;4.70;;;2.20;;
51525;SDS011;37611;51.794;21.590;2023-08-24T09:26:28;4.10;;;2.10;;
51525;SDS011;37611;51.794;21.590;2023-08-24T09:30:32;4.50;;;2.20;;
51525;SDS011;37611;51.794;21.590;2023-08-24T09:34:36;4.20;;;1.80;;
51525;SDS011;37611;51.794;21.590;2023-08-24T09:38:38;2.90;;;1.90;;
51525;SDS011;37611;51.794;21.590;2023-08-24T09:42:49;4.60;;;1.90;;
51525;SDS011;37611;51.794;21.590;2023-08-24T09:46:50;5.40;;;1.70;;
51525;SDS011;37611;51.794;21.590;2023-08-24T09:50:52;4.30;;;1.80;;
51525;SDS011;37611;51.794;21.590;2023-08-24T09:54:55;9.70;;;2.20;;
51525;SDS011;37611;51.794;21.590;2023-08-24T09:58:57;3.00;;;2.00;;
51525;SDS011;37611;51.794;21.590;2023-08-24T10:03:05;5.70;;;1.80;;
51525;SDS011;37611;51.794;21.590;2023-08-24T10:07:08;9.60;;;2.90;;
51525;SDS011;37611;51.794;21.590;2023-08-24T10:11:17;3.50;;;2.20;;
51525;SDS011;37611;51.794;21.590;2023-08-24T10:15:24;5.60;;;1.80;;
51525;SDS011;37611;51.794;21.590;2023-08-24T10:19:27;5.90;;;2.30;;
51525;SDS011;37611;51.794;21.590;2023-08-24T10:23:29;5.00;;;2.30;;
51525;SDS011;37611;51.794;21.590;2023-08-24T10:27:32;6.40;;;2.00;;
51525;SDS011;37611;51.794;21.590;2023-08-24T10:31:34;4.80;;;1.90;;
51525;SDS011;37611;51.794;21.590;2023-08-24T10:35:37;2.90;;;1.70;;
51525;SDS011;37611;51.794;21.590;2023-08-24T10:39:44;4.50;;;2.50;;
51525;SDS011;37611;51.794;21.590;2023-08-24T10:43:50;6.00;;;2.40;;
51525;SDS011;37611;51.794;21.590;2023-08-24T10:47:52;4.80;;;3.00;;
51525;SDS011;37611;51.794;21.590;2023-08-24T10:51:55;4.10;;;2.20;;
51525;SDS011;37611;51.794;21.590;2023-08-24T10:56:16;5.00;;;2.20;;
51525;SDS011;37611;51.794;21.590;2023-08-24T11:00:19;4.20;;;2.20;;
51525;SDS011;37611;51.794;21.590;2023-08-24T11:04:24;3.70;;;2.10;;
51525;SDS011;37611;51.794;21.590;2023-08-24T11:08:46;5.30;;;2.30;;
51525;SDS011;37611;51.794;21.590;2023-08-24T11:17:25;6.30;;;2.40;;
51525;SDS011;37611;51.794;21.590;2023-08-24T11:21:30;4.20;;;2.30;;
51525;SDS011;37611;51.794;21.590;2023-08-24T11:25:35;3.50;;;2.00;;
51525;SDS011;37611;51.794;21.590;2023-08-24T11:29:37;4.30;;;1.80;;
51525;SDS011;37611;51.794;21.590;2023-08-24T11:33:39;8.20;;;1.80;;
51525;SDS011;37611;51.794;21.590;2023-08-24T11:37:42;3.90;;;1.90;;
51525;SDS011;37611;51.794;21.590;2023-08-24T11:41:44;4.10;;;1.90;;
51525;SDS011;37611;51.794;21.590;2023-08-24T11:45:46;4.90;;;2.00;;
51525;SDS011;37611;51.794;21.590;2023-08-24T11:49:47;3.20;;;2.20;;
51525;SDS011;37611;51.794;21.590;2023-08-24T11:53:49;3.00;;;1.70;;
51525;SDS011;37611;51.794;21.590;2023-08-24T11:57:52;3.60;;;1.80;;
51525;SDS011;37611;51.794;21.590;2023-08-24T12:01:54;3.00;;;1.90;;
51525;SDS011;37611;51.794;21.590;2023-08-24T12:06:00;3.40;;;1.70;;
51525;SDS011;37611;51.794;21.590;2023-08-24T12:10:02;3.00;;;1.60;;
51525;SDS011;37611;51.794;21.590;2023-08-24T12:14:05;6.20;;;2.40;;
51525;SDS011;37611;51.794;21.590;2023-08-24T12:18:11;7.30;;;2.20;;
51525;SDS011;37611;51.794;21.590;2023-08-24T12:22:15;1.90;;;1.60;;
51525;SDS011;37611;51.794;21.590;2023-08-24T12:26:18;4.40;;;1.80;;
51525;SDS011;37611;51.794;21.590;2023-08-24T12:30:20;2.90;;;1.80;;
51525;SDS011;37611;51.794;21.590;2023-08-24T12:34:22;4.40;;;2.10;;
51525;SDS011;37611;51.794;21.590;2023-08-24T12:38:24;3.30;;;2.00;;
51525;SDS011;37611;51.794;21.590;2023-08-24T12:42:26;3.60;;;1.70;;
51525;SDS011;37611;51.794;21.590;2023-08-24T12:46:28;3.00;;;1.80;;
51525;SDS011;37611;51.794;21.590;2023-08-24T12:50:31;2.90;;;1.90;;
51525;SDS011;37611;51.794;21.590;2023-08-24T12:54:32;2.70;;;1.90;;
51525;SDS011;37611;51.794;21.590;2023-08-24T12:58:34;4.50;;;1.90;;
51525;SDS011;37611;51.794;21.590;2023-08-24T13:02:36;3.30;;;1.80;;
51525;SDS011;37611;51.794;21.590;2023-08-24T13:06:38;3.80;;;2.00;;
51525;SDS011;37611;51.794;21.590;2023-08-24T13:10:40;5.00;;;1.70;;
51525;SDS011;37611;51.794;21.590;2023-08-24T13:14:42;5.50;;;1.60;;
51525;SDS011;37611;51.794;21.590;2023-08-24T13:18:43;2.40;;;1.90;;
51525;SDS011;37611;51.794;21.590;2023-08-24T13:22:45;3.40;;;1.50;;
51525;SDS011;37611;51.794;21.590;2023-08-24T13:26:47;4.60;;;2.10;;
51525;SDS011;37611;51.794;21.590;2023-08-24T13:30:48;2.10;;;1.60;;
51525;SDS011;37611;51.794;21.590;2023-08-24T13:34:50;2.00;;;1.40;;
51525;SDS011;37611;51.794;21.590;2023-08-24T13:38:52;1.80;;;1.40;;
51525;SDS011;37611;51.794;21.590;2023-08-24T13:42:54;3.00;;;1.90;;
51525;SDS011;37611;51.794;21.590;2023-08-24T13:46:56;2.70;;;1.50;;
51525;SDS011;37611;51.794;21.590;2023-08-24T13:50:57;2.40;;;1.80;;
51525;SDS011;37611;51.794;21.590;2023-08-24T13:54:59;5.90;;;1.80;;
51525;SDS011;37611;51.794;21.590;2023-08-24T13:59:04;3.10;;;1.70;;
51525;SDS011;37611;51.794;21.590;2023-08-24T14:03:07;2.90;;;1.50;;
51525;SDS011;37611;51.794;21.590;2023-08-24T14:07:09;2.80;;;1.80;;
51525;SDS011;37611;51.794;21.590;2023-08-24T14:11:11;3.70;;;2.00;;
51525;SDS011;37611;51.794;21.590;2023-08-24T14:15:13;5.30;;;1.90;;
51525;SDS011;37611;51.794;21.590;2023-08-24T14:19:15;3.70;;;1.80;;
51525;SDS011;37611;51.794;21.590;2023-08-24T14:23:17;3.50;;;2.20;;
51525;SDS011;37611;51.794;21.590;2023-08-24T14:27:18;3.60;;;1.80;;
51525;SDS011;37611;51.794;21.590;2023-08-24T14:31:21;3.40;;;1.50;;
51525;SDS011;37611;51.794;21.590;2023-08-24T14:35:23;4.00;;;2.00;;
51525;SDS011;37611;51.794;21.590;2023-08-24T14:39:25;4.00;;;1.90;;
51525;SDS011;37611;51.794;21.590;2023-08-24T14:43:28;3.80;;;2.00;;
51525;SDS011;37611;51.794;21.590;2023-08-24T14:47:29;3.30;;;2.00;;
51525;SDS011;37611;51.794;21.590;2023-08-24T14:51:31;3.00;;;1.80;;
51525;SDS011;37611;51.794;21.590;2023-08-24T14:55:33;3.70;;;1.90;;
51525;SDS011;37611;51.794;21.590;2023-08-24T14:59:35;6.10;;;2.10;;
51525;SDS011;37611;51.794;21.590;2023-08-24T15:03:37;2.60;;;1.90;;
51525;SDS011;37611;51.794;21.590;2023-08-24T15:07:38;3.20;;;2.30;;
51525;SDS011;37611;51.794;21.590;2023-08-24T15:11:40;3.30;;;1.80;;
51525;SDS011;37611;51.794;21.590;2023-08-24T15:15:42;5.60;;;1.80;;
51525;SDS011;37611;51.794;21.590;2023-08-24T15:19:44;3.60;;;1.90;;
51525;SDS011;37611;51.794;21.590;2023-08-24T15:23:45;5.00;;;2.00;;
51525;SDS011;37611;51.794;21.590;2023-08-24T15:27:47;3.50;;;2.30;;
51525;SDS011;37611;51.794;21.590;2023-08-24T15:31:49;3.80;;;1.90;;
51525;SDS011;37611;51.794;21.590;2023-08-24T15:35:50;6.20;;;2.70;;
51525;SDS011;37611;51.794;21.590;2023-08-24T15:39:52;5.60;;;2.70;;
51525;SDS011;37611;51.794;21.590;2023-08-24T15:43:54;4.00;;;2.40;;
51525;SDS011;37611;51.794;21.590;2023-08-24T15:47:56;3.70;;;2.10;;
51525;SDS011;37611;51.794;21.590;2023-08-24T15:51:59;5.60;;;2.40;;
51525;SDS011;37611;51.794;21.590;2023-08-24T15:56:01;2.60;;;1.90;;
51525;SDS011;37611;51.794;21.590;2023-08-24T16:00:03;3.20;;;2.70;;
51525;SDS011;37611;51.794;21.590;2023-08-24T16:04:05;3.40;;;1.90;;
51525;SDS011;37611;51.794;21.590;2023-08-24T16:08:07;4.60;;;2.40;;
51525;SDS011;37611;51.794;21.590;2023-08-24T16:12:09;2.60;;;1.90;;
51525;SDS011;37611;51.794;21.590;2023-08-24T16:16:10;3.30;;;2.20;;
51525;SDS011;37611;51.794;21.590;2023-08-24T16:20:12;5.10;;;2.20;;
51525;SDS011;37611;51.794;21.590;2023-08-24T16:24:14;4.70;;;2.50;;
51525;SDS011;37611;51.794;21.590;2023-08-24T16:28:17;4.30;;;3.00;;
51525;SDS011;37611;51.794;21.590;2023-08-24T16:32:19;6.30;;;2.60;;
51525;SDS011;37611;51.794;21.590;2023-08-24T16:36:21;3.80;;;2.60;;
51525;SDS011;37611;51.794;21.590;2023-08-24T16:40:23;3.80;;;2.70;;
51525;SDS011;37611;51.794;21.590;2023-08-24T16:44:25;4.40;;;2.70;;
51525;SDS011;37611;51.794;21.590;2023-08-24T16:48:27;3.90;;;2.30;;
51525;SDS011;37611;51.794;21.590;2023-08-24T16:52:28;5.10;;;2.30;;
51525;SDS011;37611;51.794;21.590;2023-08-24T16:56:30;5.50;;;3.00;;
51525;SDS011;37611;51.794;21.590;2023-08-24T17:00:32;4.70;;;3.30;;
51525;SDS011;37611;51.794;21.590;2023-08-24T17:04:34;5.60;;;3.30;;
51525;SDS011;37611;51.794;21.590;2023-08-24T17:08:36;6.10;;;3.40;;
51525;SDS011;37611;51.794;21.590;2023-08-24T17:12:37;6.20;;;3.80;;
51525;SDS011;37611;51.794;21.590;2023-08-24T17:16:39;8.80;;;3.80;;
51525;SDS011;37611;51.794;21.590;2023-08-24T17:20:41;16.50;;;4.30;;
51525;SDS011;37611;51.794;21.590;2023-08-24T17:24:43;10.50;;;5.40;;
51525;SDS011;37611;51.794;21.590;2023-08-24T17:28:45;14.40;;;5.40;;
51525;SDS011;37611;51.794;21.590;2023-08-24T17:32:46;12.70;;;5.30;;
51525;SDS011;37611;51.794;21.590;2023-08-24T17:36:48;8.30;;;5.30;;
51525;SDS011;37611;51.794;21.590;2023-08-24T17:40:50;6.90;;;4.10;;
51525;SDS011;37611;51.794;21.590;2023-08-24T17:44:52;7.00;;;4.70;;
51525;SDS011;37611;51.794;21.590;2023-08-24T17:48:53;5.10;;;4.20;;
51525;SDS011;37611;51.794;21.590;2023-08-24T17:52:55;170.30;;;17.00;;
51525;SDS011;37611;51.794;21.590;2023-08-24T17:57:00;30.90;;;7.50;;
51525;SDS011;37611;51.794;21.590;2023-08-24T18:01:02;32.90;;;11.20;;
51525;SDS011;37611;51.794;21.590;2023-08-24T18:05:04;24.00;;;13.90;;
51525;SDS011;37611;51.794;21.590;2023-08-24T18:09:06;20.20;;;9.20;;
51525;SDS011;37611;51.794;21.590;2023-08-24T18:13:08;14.80;;;9.40;;
51525;SDS011;37611;51.794;21.590;2023-08-24T18:17:10;35.20;;;21.00;;
51525;SDS011;37611;51.794;21.590;2023-08-24T18:21:11;36.50;;;22.50;;
51525;SDS011;37611;51.794;21.590;2023-08-24T18:25:13;31.70;;;18.10;;
51525;SDS011;37611;51.794;21.590;2023-08-24T18:29:15;24.20;;;15.00;;
51525;SDS011;37611;51.794;21.590;2023-08-24T18:33:17;24.90;;;14.50;;
51525;SDS011;37611;51.794;21.590;2023-08-24T18:37:18;25.40;;;13.20;;
51525;SDS011;37611;51.794;21.590;2023-08-24T18:41:20;34.10;;;18.10;;
51525;SDS011;37611;51.794;21.590;2023-08-24T18:45:22;30.00;;;17.20;;
51525;SDS011;37611;51.794;21.590;2023-08-24T18:49:26;32.80;;;16.80;;
51525;SDS011;37611;51.794;21.590;2023-08-24T18:53:28;30.50;;;15.90;;
51525;SDS011;37611;51.794;21.590;2023-08-24T18:57:29;20.70;;;14.20;;
51525;SDS011;37611;51.794;21.590;2023-08-24T19:01:31;17.50;;;11.90;;
51525;SDS011;37611;51.794;21.590;2023-08-24T19:05:35;23.10;;;13.90;;
51525;SDS011;37611;51.794;21.590;2023-08-24T19:09:37;49.20;;;26.30;;
51525;SDS011;37611;51.794;21.590;2023-08-24T19:13:39;65.10;;;36.80;;
51525;SDS011;37611;51.794;21.590;2023-08-24T19:17:41;43.20;;;26.90;;
51525;SDS011;37611;51.794;21.590;2023-08-24T19:21:43;52.00;;;31.50;;
51525;SDS011;37611;51.794;21.590;2023-08-24T19:26:05;39.50;;;26.30;;
51525;SDS011;37611;51.794;21.590;2023-08-24T19:30:08;39.00;;;25.10;;
51525;SDS011;37611;51.794;21.590;2023-08-24T19:34:10;32.40;;;22.90;;
51525;SDS011;37611;51.794;21.590;2023-08-24T19:38:12;33.80;;;23.20;;
51525;SDS011;37611;51.794;21.590;2023-08-24T19:42:14;34.20;;;23.20;;
51525;SDS011;37611;51.794;21.590;2023-08-24T19:46:16;32.10;;;21.40;;
51525;SDS011;37611;51.794;21.590;2023-08-24T19:50:18;24.20;;;17.70;;
51525;SDS011;37611;51.794;21.590;2023-08-24T19:54:19;28.20;;;19.30;;
51525;SDS011;37611;51.794;21.590;2023-08-24T19:58:21;29.60;;;19.30;;
51525;SDS011;37611;51.794;21.590;2023-08-24T20:02:23;27.40;;;17.10;;
51525;SDS011;37611;51.794;21.590;2023-08-24T20:06:25;19.80;;;11.50;;
51525;SDS011;37611;51.794;21.590;2023-08-24T20:10:28;11.90;;;7.50;;
51525;SDS011;37611;51.794;21.590;2023-08-24T20:14:30;14.40;;;6.40;;
51525;SDS011;37611;51.794;21.590;2023-08-24T20:18:33;15.70;;;8.30;;
51525;SDS011;37611;51.794;21.590;2023-08-24T20:22:35;14.10;;;7.10;;
51525;SDS011;37611;51.794;21.590;2023-08-24T20:26:36;18.20;;;7.70;;
51525;SDS011;37611;51.794;21.590;2023-08-24T20:30:40;18.60;;;7.50;;
51525;SDS011;37611;51.794;21.590;2023-08-24T20:34:41;11.70;;;7.80;;
51525;SDS011;37611;51.794;21.590;2023-08-24T20:38:43;13.90;;;7.90;;
51525;SDS011;37611;51.794;21.590;2023-08-24T20:42:45;16.90;;;8.60;;
51525;SDS011;37611;51.794;21.590;2023-08-24T20:46:46;17.80;;;8.70;;
51525;SDS011;37611;51.794;21.590;2023-08-24T20:50:48;18.70;;;8.90;;
51525;SDS011;37611;51.794;21.590;2023-08-24T20:54:50;15.80;;;10.60;;
51525;SDS011;37611;51.794;21.590;2023-08-24T20:58:52;16.20;;;9.60;;
51525;SDS011;37611;51.794;21.590;2023-08-24T21:02:54;15.30;;;9.70;;
51525;SDS011;37611;51.794;21.590;2023-08-24T21:06:56;12.20;;;9.30;;
51525;SDS011;37611;51.794;21.590;2023-08-24T21:10:58;11.60;;;7.50;;
51525;SDS011;37611;51.794;21.590;2023-08-24T21:15:00;12.70;;;8.20;;
51525;SDS011;37611;51.794;21.590;2023-08-24T21:19:02;12.20;;;8.30;;
51525;SDS011;37611;51.794;21.590;2023-08-24T21:23:03;13.20;;;9.00;;
51525;SDS011;37611;51.794;21.590;2023-08-24T21:27:06;13.50;;;9.50;;
51525;SDS011;37611;51.794;21.590;2023-08-24T21:31:07;16.00;;;9.80;;
51525;SDS011;37611;51.794;21.590;2023-08-24T21:35:09;14.10;;;9.60;;
51525;SDS011;37611;51.794;21.590;2023-08-24T21:39:11;18.20;;;11.10;;
51525;SDS011;37611;51.794;21.590;2023-08-24T21:43:13;14.00;;;10.70;;
51525;SDS011;37611;51.794;21.590;2023-08-24T21:47:15;15.80;;;10.50;;
51525;SDS011;37611;51.794;21.590;2023-08-24T21:51:16;15.90;;;11.20;;
51525;SDS011;37611;51.794;21.590;2023-08-24T21:55:18;17.30;;;11.40;;
51525;SDS011;37611;51.794;21.590;2023-08-24T21:59:20;17.20;;;12.30;;
51525;SDS011;37611;51.794;21.590;2023-08-24T22:03:22;19.40;;;13.00;;
51525;SDS011;37611;51.794;21.590;2023-08-24T22:07:26;26.00;;;13.10;;
51525;SDS011;37611;51.794;21.590;2023-08-24T22:11:28;19.60;;;12.60;;
51525;SDS011;37611;51.794;21.590;2023-08-24T22:15:29;20.80;;;13.70;;
51525;SDS011;37611;51.794;21.590;2023-08-24T22:19:31;19.60;;;12.40;;
51525;SDS011;37611;51.794;21.590;2023-08-24T22:23:33;23.30;;;13.90;;
51525;SDS011;37611;51.794;21.590;2023-08-24T22:27:35;21.40;;;12.90;;
51525;SDS011;37611;51.794;21.590;2023-08-24T22:31:37;26.80;;;12.60;;
51525;SDS011;37611;51.794;21.590;2023-08-24T22:35:40;17.60;;;12.50;;
51525;SDS011;37611;51.794;21.590;2023-08-24T22:39:42;18.90;;;11.70;;
51525;SDS011;37611;51.794;21.590;2023-08-24T22:43:43;17.50;;;11.60;;
51525;SDS011;37611;51.794;21.590;2023-08-24T22:47:46;17.00;;;11.40;;
51525;SDS011;37611;51.794;21.590;2023-08-24T22:51:47;17.80;;;10.50;;
51525;SDS011;37611;51.794;21.590;2023-08-24T22:55:49;14.90;;;11.00;;
51525;SDS011;37611;51.794;21.590;2023-08-24T22:59:51;15.30;;;11.20;;
51525;SDS011;37611;51.794;21.590;2023-08-24T23:03:53;17.60;;;11.40;;
51525;SDS011;37611;51.794;21.590;2023-08-24T23:07:55;20.70;;;12.30;;
51525;SDS011;37611;51.794;21.590;2023-08-24T23:11:56;20.60;;;13.00;;
51525;SDS011;37611;51.794;21.590;2023-08-24T23:16:03;18.10;;;11.70;;
51525;SDS011;37611;51.794;21.590;2023-08-24T23:20:07;21.00;;;12.00;;
51525;SDS011;37611;51.794;21.590;2023-08-24T23:24:10;17.70;;;11.90;;
51525;SDS011;37611;51.794;21.590;2023-08-24T23:28:12;16.10;;;11.00;;
51525;SDS011;37611;51.794;21.590;2023-08-24T23:32:13;19.00;;;11.40;;
51525;SDS011;37611;51.794;21.590;2023-08-24T23:36:15;20.80;;;11.50;;
51525;SDS011;37611;51.794;21.590;2023-08-24T23:40:17;22.70;;;11.90;;
51525;SDS011;37611;51.794;21.590;2023-08-24T23:44:19;18.00;;;10.40;;
51525;SDS011;37611;51.794;21.590;2023-08-24T23:48:23;19.50;;;10.60;;
51525;SDS011;37611;51.794;21.590;2023-08-24T23:52:25;18.50;;;11.70;;
51525;SDS011;37611;51.794;21.590;2023-08-24T23:56:27;19.80;;;11.90;;
